createdAt,value
2023-02-11T00:00:07.635Z,37.00
2023-02-11T00:04:29.390Z,39.90
2023-02-11T00:08:31.335Z,31.30
2023-02-11T00:12:35.425Z,46.10
2023-02-11T00:16:37.219Z,39.30
2023-02-11T00:20:39.447Z,42.50
2023-02-11T00:24:41.911Z,34.60
2023-02-11T00:28:44.586Z,49.40
2023-02-11T00:32:47.596Z,43.30
2023-02-11T00:36:50.134Z,59.10
2023-02-11T00:40:51.992Z,48.20
2023-02-11T00:44:53.711Z,47.90
2023-02-11T00:48:57.435Z,52.60
2023-02-11T00:52:59.262Z,54.70
2023-02-11T00:57:01.190Z,56.70
2023-02-11T01:01:04.580Z,47.30
2023-02-11T01:05:06.961Z,45.00
2023-02-11T01:09:08.874Z,47.40
2023-02-11T01:13:10.860Z,56.40
2023-02-11T01:17:12.785Z,41.80
2023-02-11T01:21:14.674Z,50.40
2023-02-11T01:25:16.616Z,42.40
2023-02-11T01:29:18.542Z,43.00
2023-02-11T01:33:22.234Z,44.00
2023-02-11T01:37:24.257Z,47.70
2023-02-11T01:41:26.031Z,45.70
2023-02-11T01:45:47.010Z,38.40
2023-02-11T01:49:56.495Z,39.90
2023-02-11T01:54:17.893Z,29.70
2023-02-11T01:58:20.424Z,29.60
2023-02-11T02:02:30.376Z,33.30
2023-02-11T02:06:40.441Z,35.90
2023-02-11T02:10:46.503Z,34.00
2023-02-11T02:14:48.281Z,34.20
2023-02-11T02:19:25.311Z,26.90
2023-02-11T02:24:04.532Z,36.30
2023-02-11T02:28:25.308Z,36.50
2023-02-11T02:32:30.850Z,36.50
2023-02-11T02:37:10.551Z,47.40
2023-02-11T02:41:16.479Z,29.20
2023-02-11T02:45:19.160Z,31.40
2023-02-11T02:49:20.966Z,34.00
2023-02-11T02:53:54.555Z,29.80
2023-02-11T02:58:25.152Z,36.80
2023-02-11T03:02:31.436Z,38.20
2023-02-11T03:07:00.525Z,32.60
2023-02-11T03:11:05.287Z,41.20
2023-02-11T03:15:08.331Z,33.60
2023-02-11T03:19:34.400Z,43.90
2023-02-11T03:23:40.918Z,39.30
2023-02-11T03:32:15.883Z,41.90
2023-02-11T03:36:27.416Z,33.80
2023-02-11T03:40:34.770Z,40.60
2023-02-11T03:44:42.494Z,31.90
2023-02-11T03:48:50.052Z,44.00
2023-02-11T03:52:53.601Z,38.70
2023-02-11T03:56:58.209Z,30.80
2023-02-11T04:01:02.586Z,41.10
2023-02-11T04:05:06.822Z,36.80
2023-02-11T04:09:17.031Z,37.70
2023-02-11T04:13:19.883Z,38.10
2023-02-11T04:17:24.716Z,37.90
2023-02-11T04:21:26.633Z,32.00
2023-02-11T04:25:28.701Z,38.40
2023-02-11T04:29:31.555Z,33.50
2023-02-11T04:33:35.563Z,30.80
2023-02-11T04:37:37.453Z,37.50
2023-02-11T04:41:39.262Z,38.10
2023-02-11T04:45:41.238Z,37.40
2023-02-11T04:49:43.552Z,39.60
2023-02-11T04:53:46.431Z,32.70
2023-02-11T04:57:52.145Z,38.50
2023-02-11T05:01:54.041Z,34.90
2023-02-11T05:05:56.310Z,33.30
2023-02-11T05:09:58.441Z,31.30
2023-02-11T05:14:01.194Z,44.50
2023-02-11T05:18:03.156Z,40.30
2023-02-11T05:22:05.135Z,33.70
2023-02-11T05:26:09.564Z,43.00
2023-02-11T05:30:11.964Z,31.90
2023-02-11T05:34:13.792Z,34.70
2023-02-11T05:38:16.952Z,36.90
2023-02-11T05:42:18.760Z,37.60
2023-02-11T05:46:20.664Z,38.40
2023-02-11T05:50:22.662Z,34.00
2023-02-11T05:54:24.449Z,39.50
2023-02-11T05:58:26.266Z,40.90
2023-02-11T06:02:28.041Z,37.70
2023-02-11T06:06:30.082Z,34.10
2023-02-11T06:10:31.936Z,35.20
2023-02-11T06:14:33.851Z,40.70
2023-02-11T06:18:35.678Z,34.60
2023-02-11T06:22:37.973Z,45.20
2023-02-11T06:26:40.138Z,38.20
2023-02-11T06:30:42.356Z,47.20
2023-02-11T06:34:45.943Z,39.40
2023-02-11T06:38:49.033Z,40.60
2023-02-11T06:42:51.174Z,41.60
2023-02-11T06:46:53.227Z,33.20
2023-02-11T06:50:55.246Z,46.30
2023-02-11T06:54:57.450Z,40.10
2023-02-11T06:59:01.993Z,35.20
2023-02-11T07:03:06.904Z,57.80
2023-02-11T07:07:09.119Z,31.80
2023-02-11T07:11:20.879Z,37.90
2023-02-11T07:15:22.700Z,45.50
2023-02-11T07:19:24.569Z,34.70
2023-02-11T07:23:26.405Z,40.20
2023-02-11T07:27:28.277Z,41.20
2023-02-11T07:31:31.183Z,47.70
2023-02-11T07:35:33.299Z,41.90
2023-02-11T07:39:35.692Z,38.20
2023-02-11T07:43:39.358Z,38.90
2023-02-11T07:47:42.666Z,39.60
2023-02-11T07:51:45.481Z,36.10
2023-02-11T07:55:47.392Z,37.50
2023-02-11T07:59:58.256Z,42.10
2023-02-11T08:04:02.287Z,35.10
2023-02-11T08:08:04.398Z,39.20
2023-02-11T08:12:07.636Z,36.90
2023-02-11T08:16:23.898Z,43.80
2023-02-11T08:20:26.078Z,47.30
2023-02-11T08:24:28.919Z,39.60
2023-02-11T08:28:31.982Z,40.30
2023-02-11T08:56:59.792Z,49.10
2023-02-11T09:01:12.907Z,35.40
2023-02-11T09:05:15.540Z,42.20
2023-02-11T09:09:17.818Z,32.80
2023-02-11T09:13:43.734Z,34.60
2023-02-11T09:17:47.944Z,39.60
2023-02-11T09:21:51.014Z,36.60
2023-02-11T09:25:53.049Z,34.40
2023-02-11T09:29:55.882Z,31.90
2023-02-11T09:34:01.451Z,37.40
2023-02-11T09:38:03.390Z,44.10
2023-02-11T09:42:19.902Z,37.20
2023-02-11T09:46:39.621Z,30.00
2023-02-11T09:50:46.729Z,37.80
2023-02-11T09:55:09.278Z,37.50
2023-02-11T09:59:16.975Z,38.70
2023-02-11T10:03:39.101Z,40.70
2023-02-11T10:08:22.860Z,35.20
2023-02-11T10:13:01.480Z,31.70
2023-02-11T10:17:16.553Z,30.50
2023-02-11T10:27:01.486Z,35.60
2023-02-11T10:31:42.893Z,43.10
2023-02-11T10:35:46.740Z,34.90
2023-02-11T10:39:50.525Z,43.40
2023-02-11T10:43:52.522Z,42.60
2023-02-11T10:47:54.608Z,36.90
2023-02-11T10:52:18.210Z,34.60
2023-02-11T10:56:27.177Z,37.40
2023-02-11T11:00:56.458Z,42.00
2023-02-11T11:05:03.425Z,43.80
2023-02-11T11:09:05.070Z,37.50
2023-02-11T11:13:58.552Z,37.50
2023-02-11T11:18:22.855Z,38.90
2023-02-11T11:22:24.966Z,31.20
2023-02-11T11:27:02.382Z,35.10
2023-02-11T11:31:05.374Z,37.50
2023-02-11T11:35:28.955Z,31.60
2023-02-11T11:39:34.228Z,36.10
2023-02-11T11:43:38.415Z,35.20
2023-02-11T11:48:47.808Z,33.70
2023-02-11T11:53:16.156Z,38.40
2023-02-11T11:57:22.863Z,35.50
2023-02-11T12:01:54.830Z,32.60
2023-02-11T12:06:29.647Z,41.90
2023-02-11T12:11:18.949Z,29.70
2023-02-11T12:15:41.182Z,31.00
2023-02-11T12:19:50.379Z,34.00
2023-02-11T12:23:55.733Z,28.50
2023-02-11T12:28:07.135Z,30.10
2023-02-11T12:32:31.513Z,39.70
2023-02-11T12:36:53.883Z,31.00
2023-02-11T12:41:04.383Z,38.60
2023-02-11T12:45:26.066Z,37.40
2023-02-11T12:49:49.938Z,37.60
2023-02-11T12:54:10.717Z,33.20
2023-02-11T12:58:45.815Z,33.10
2023-02-11T13:03:14.270Z,32.80
2023-02-11T13:07:30.647Z,27.00
2023-02-11T13:11:39.994Z,38.20
2023-02-11T13:16:05.272Z,33.10
2023-02-11T13:20:30.258Z,30.50
2023-02-11T13:25:03.229Z,36.60
2023-02-11T13:29:16.491Z,37.90
2023-02-11T13:33:50.608Z,27.20
2023-02-11T13:37:55.822Z,35.20
2023-02-11T13:42:04.367Z,36.20
2023-02-11T13:46:09.931Z,34.40
2023-02-11T13:50:46.791Z,38.00
2023-02-11T13:54:52.799Z,31.70
2023-02-11T13:58:54.830Z,25.50
2023-02-11T14:03:31.380Z,33.00
2023-02-11T14:12:36.473Z,29.60
2023-02-11T14:17:18.548Z,36.10
2023-02-11T14:26:25.621Z,33.50
2023-02-11T14:30:38.758Z,34.10
2023-02-11T14:35:06.043Z,32.50
2023-02-11T14:39:41.252Z,27.40
2023-02-11T14:43:56.219Z,30.90
2023-02-11T14:48:07.730Z,25.90
2023-02-11T14:52:36.289Z,28.90
2023-02-11T14:56:44.466Z,27.60
2023-02-11T15:00:59.987Z,24.00
2023-02-11T15:05:15.949Z,25.90
2023-02-11T15:09:44.183Z,26.40
2023-02-11T15:13:51.728Z,25.00
2023-02-11T15:17:59.024Z,21.10
2023-02-11T15:22:04.833Z,29.20
2023-02-11T15:26:14.042Z,26.70
2023-02-11T15:30:22.261Z,26.10
2023-02-11T15:34:24.233Z,25.70
2023-02-11T15:38:29.295Z,23.10
2023-02-11T15:42:40.970Z,28.20
2023-02-11T15:46:46.906Z,23.70
2023-02-11T15:50:58.532Z,25.90
2023-02-11T15:59:56.077Z,23.50
2023-02-11T16:04:01.368Z,25.90
2023-02-11T16:08:29.468Z,21.90
2023-02-11T16:12:31.621Z,21.60
2023-02-11T16:16:34.740Z,24.40
2023-02-11T16:20:37.961Z,27.00
2023-02-11T16:25:20.220Z,21.30
2023-02-11T16:29:32.413Z,24.30
2023-02-11T16:33:42.431Z,27.00
2023-02-11T16:37:45.199Z,20.00
2023-02-11T16:41:53.761Z,28.40
2023-02-11T17:03:39.559Z,21.10
2023-02-11T17:07:56.381Z,16.10
2023-02-11T17:12:35.045Z,17.80
2023-02-11T17:16:39.930Z,26.50
2023-02-11T17:20:42.180Z,19.90
2023-02-11T17:24:44.305Z,23.60
2023-02-11T17:28:47.710Z,20.30
2023-02-11T17:32:50.673Z,17.70
2023-02-11T17:36:52.640Z,18.50
2023-02-11T17:40:59.326Z,16.00
2023-02-11T17:45:01.217Z,15.40
2023-02-11T17:49:03.496Z,17.80
2023-02-11T17:53:06.597Z,18.10
2023-02-11T17:57:10.383Z,15.10
2023-02-11T18:01:12.881Z,16.50
2023-02-11T18:05:14.856Z,16.90
2023-02-11T18:09:16.885Z,22.70
2023-02-11T18:13:19.231Z,23.30
2023-02-11T18:17:22.012Z,25.90
2023-02-11T18:21:24.428Z,22.00
2023-02-11T18:25:26.290Z,26.40
2023-02-11T18:29:29.195Z,22.80
2023-02-11T18:33:31.548Z,22.70
2023-02-11T18:37:33.307Z,19.70
2023-02-11T18:41:35.494Z,23.50
2023-02-11T18:45:37.503Z,24.00
2023-02-11T18:49:39.448Z,22.50
2023-02-11T18:53:42.148Z,24.50
2023-02-11T18:57:44.734Z,24.80
2023-02-11T19:01:47.478Z,26.80
2023-02-11T19:05:51.704Z,24.80
2023-02-11T19:09:55.428Z,25.90
2023-02-11T19:13:58.030Z,23.80
2023-02-11T19:17:59.784Z,24.20
2023-02-11T19:22:07.272Z,27.10
2023-02-11T19:26:10.300Z,22.00
2023-02-11T19:30:12.406Z,25.20
2023-02-11T19:34:15.775Z,24.60
2023-02-11T19:38:25.205Z,22.60
2023-02-11T19:42:40.141Z,23.80
2023-02-11T19:47:10.992Z,26.40
2023-02-11T19:51:25.130Z,32.50
2023-02-11T19:55:32.664Z,33.70
2023-02-11T19:59:54.074Z,22.10
2023-02-11T20:04:04.436Z,25.60
2023-02-11T20:08:21.086Z,19.30
2023-02-11T20:12:24.269Z,26.70
2023-02-11T20:16:46.801Z,21.30
2023-02-11T20:20:55.087Z,26.30
2023-02-11T20:24:59.678Z,22.60
2023-02-11T20:29:08.791Z,26.40
2023-02-11T20:33:18.750Z,19.80
2023-02-11T20:37:21.946Z,20.50
2023-02-11T20:41:27.991Z,18.00
2023-02-11T20:45:33.707Z,24.80
2023-02-11T20:49:46.550Z,25.10
2023-02-11T20:53:51.715Z,22.30
2023-02-11T21:02:08.314Z,25.20
2023-02-11T21:06:20.636Z,25.90
2023-02-11T21:10:32.401Z,23.60
2023-02-11T21:14:37.332Z,20.00
2023-02-11T21:18:51.125Z,23.50
2023-02-11T21:22:57.598Z,25.30
2023-02-11T21:26:59.474Z,28.60
2023-02-11T21:31:03.263Z,24.50
2023-02-11T21:35:06.039Z,20.30
2023-02-11T21:39:08.477Z,22.60
2023-02-11T21:43:10.355Z,22.50
2023-02-11T21:47:12.908Z,22.40
2023-02-11T21:51:17.733Z,23.70
2023-02-11T21:55:20.225Z,26.10
2023-02-11T21:59:22.033Z,16.80
2023-02-11T22:03:23.994Z,18.40
2023-02-11T22:07:27.510Z,14.90
2023-02-11T22:11:29.748Z,18.50
2023-02-11T22:15:31.621Z,13.50
2023-02-11T22:19:34.413Z,15.80
2023-02-11T22:23:37.791Z,28.00
2023-02-11T22:27:39.736Z,32.20
2023-02-11T22:31:42.010Z,17.10
2023-02-11T22:35:43.976Z,25.90
2023-02-11T22:39:46.219Z,17.00
2023-02-11T22:43:48.255Z,16.90
2023-02-11T22:47:50.335Z,22.60
2023-02-11T22:51:52.766Z,27.50
2023-02-11T22:55:54.824Z,15.70
2023-02-11T22:59:56.926Z,24.70
2023-02-11T23:04:00.397Z,20.00
2023-02-11T23:08:02.316Z,24.40
2023-02-11T23:12:04.942Z,15.00
2023-02-11T23:16:10.486Z,18.90
2023-02-11T23:20:13.002Z,16.90
2023-02-11T23:24:15.498Z,26.10
2023-02-11T23:28:17.519Z,21.20
2023-02-11T23:32:20.433Z,24.30
2023-02-11T23:36:23.260Z,18.30
2023-02-11T23:40:25.180Z,20.20
2023-02-11T23:44:27.920Z,20.40
2023-02-11T23:48:30.754Z,21.10
2023-02-11T23:52:32.841Z,20.10
2023-02-11T23:56:36.470Z,21.90
